sensor_id;sensor_type;location;lat;lon;timestamp;pressure;altitude;pressure_sealevel;temperature
75428;BMP280;64008;55.612;37.698;2023-07-29T00:00:44;98632.13;;;20.06
75428;BMP280;64008;55.612;37.698;2023-07-29T00:03:10;98634.91;;;20.27
75428;BMP280;64008;55.612;37.698;2023-07-29T00:05:40;98634.91;;;20.27
75428;BMP280;64008;55.612;37.698;2023-07-29T00:08:06;98637.47;;;20.24
75428;BMP280;64008;55.612;37.698;2023-07-29T00:10:32;98633.56;;;20.42
75428;BMP280;64008;55.612;37.698;2023-07-29T00:12:58;98647.91;;;20.08
75428;BMP280;64008;55.612;37.698;2023-07-29T00:15:23;98650.88;;;20.24
75428;BMP280;64008;55.612;37.698;2023-07-29T00:17:49;98645.09;;;20.43
75428;BMP280;64008;55.612;37.698;2023-07-29T00:20:15;98638.84;;;20.60
75428;BMP280;64008;55.612;37.698;2023-07-29T00:22:40;98641.16;;;20.40
75428;BMP280;64008;55.612;37.698;2023-07-29T00:25:06;98645.69;;;20.19
75428;BMP280;64008;55.612;37.698;2023-07-29T00:27:32;98658.16;;;20.15
75428;BMP280;64008;55.612;37.698;2023-07-29T00:29:57;98650.97;;;20.36
75428;BMP280;64008;55.612;37.698;2023-07-29T00:32:23;98643.03;;;20.10
75428;BMP280;64008;55.612;37.698;2023-07-29T00:34:48;98633.63;;;20.25
75428;BMP280;64008;55.612;37.698;2023-07-29T00:37:14;98639.03;;;20.16
75428;BMP280;64008;55.612;37.698;2023-07-29T00:39:39;98638.28;;;20.07
75428;BMP280;64008;55.612;37.698;2023-07-29T00:42:06;98638.84;;;19.83
75428;BMP280;64008;55.612;37.698;2023-07-29T00:44:31;98624.78;;;19.86
75428;BMP280;64008;55.612;37.698;2023-07-29T00:46:58;98619.50;;;20.07
75428;BMP280;64008;55.612;37.698;2023-07-29T00:49:26;98617.22;;;19.97
75428;BMP280;64008;55.612;37.698;2023-07-29T00:51:51;98611.06;;;19.96
75428;BMP280;64008;55.612;37.698;2023-07-29T00:54:17;98622.19;;;20.16
75428;BMP280;64008;55.612;37.698;2023-07-29T00:56:42;98626.03;;;19.97
75428;BMP280;64008;55.612;37.698;2023-07-29T00:59:08;98623.28;;;19.41
75428;BMP280;64008;55.612;37.698;2023-07-29T01:01:34;98620.81;;;20.01
75428;BMP280;64008;55.612;37.698;2023-07-29T01:03:59;98618.81;;;19.72
75428;BMP280;64008;55.612;37.698;2023-07-29T01:09:40;98612.94;;;19.96
75428;BMP280;64008;55.612;37.698;2023-07-29T01:12:13;98608.03;;;19.98
75428;BMP280;64008;55.612;37.698;2023-07-29T01:15:01;98620.72;;;19.80
75428;BMP280;64008;55.612;37.698;2023-07-29T01:17:33;98626.03;;;19.97
75428;BMP280;64008;55.612;37.698;2023-07-29T01:20:07;98615.06;;;19.73
75428;BMP280;64008;55.612;37.698;2023-07-29T01:22:34;98600.75;;;20.07
75428;BMP280;64008;55.612;37.698;2023-07-29T01:25:00;98595.31;;;20.24
75428;BMP280;64008;55.612;37.698;2023-07-29T01:27:26;98609.69;;;20.20
75428;BMP280;64008;55.612;37.698;2023-07-29T01:29:53;98608.31;;;20.43
75428;BMP280;64008;55.612;37.698;2023-07-29T01:34:59;98584.41;;;20.00
75428;BMP280;64008;55.612;37.698;2023-07-29T01:37:26;98582.59;;;20.13
75428;BMP280;64008;55.612;37.698;2023-07-29T01:39:55;98582.66;;;20.34
75428;BMP280;64008;55.612;37.698;2023-07-29T01:42:22;98584.00;;;20.19
75428;BMP280;64008;55.612;37.698;2023-07-29T01:44:48;98581.13;;;19.85
75428;BMP280;64008;55.612;37.698;2023-07-29T01:47:13;98579.28;;;20.16
75428;BMP280;64008;55.612;37.698;2023-07-29T01:49:39;98572.75;;;20.25
75428;BMP280;64008;55.612;37.698;2023-07-29T01:52:05;98585.38;;;20.25
75428;BMP280;64008;55.612;37.698;2023-07-29T01:54:30;98587.84;;;20.00
75428;BMP280;64008;55.612;37.698;2023-07-29T01:56:56;98586.03;;;19.83
75428;BMP280;64008;55.612;37.698;2023-07-29T01:59:21;98591.97;;;19.89
75428;BMP280;64008;55.612;37.698;2023-07-29T02:01:47;98601.31;;;19.92
75428;BMP280;64008;55.612;37.698;2023-07-29T02:04:12;98602.88;;;19.93
75428;BMP280;64008;55.612;37.698;2023-07-29T02:06:38;98606.50;;;20.26
75428;BMP280;64008;55.612;37.698;2023-07-29T02:09:03;98616.34;;;20.14
75428;BMP280;64008;55.612;37.698;2023-07-29T02:11:30;98625.13;;;19.93
75428;BMP280;64008;55.612;37.698;2023-07-29T02:13:56;98636.84;;;20.18
75428;BMP280;64008;55.612;37.698;2023-07-29T02:16:22;98641.19;;;19.93
75428;BMP280;64008;55.612;37.698;2023-07-29T02:18:50;98638.06;;;19.82
75428;BMP280;64008;55.612;37.698;2023-07-29T02:21:16;98640.59;;;19.79
75428;BMP280;64008;55.612;37.698;2023-07-29T02:23:42;98641.78;;;19.99
75428;BMP280;64008;55.612;37.698;2023-07-29T02:26:07;98631.94;;;19.56
75428;BMP280;64008;55.612;37.698;2023-07-29T02:28:33;98637.72;;;19.93
75428;BMP280;64008;55.612;37.698;2023-07-29T02:31:15;98629.25;;;19.64
75428;BMP280;64008;55.612;37.698;2023-07-29T02:33:42;98629.38;;;19.77
75428;BMP280;64008;55.612;37.698;2023-07-29T02:36:07;98626.97;;;20.01
75428;BMP280;64008;55.612;37.698;2023-07-29T02:38:33;98631.69;;;20.04
75428;BMP280;64008;55.612;37.698;2023-07-29T02:40:58;98632.03;;;19.85
75428;BMP280;64008;55.612;37.698;2023-07-29T02:43:24;98639.81;;;19.70
75428;BMP280;64008;55.612;37.698;2023-07-29T02:45:49;98637.78;;;19.67
75428;BMP280;64008;55.612;37.698;2023-07-29T02:48:15;98621.34;;;19.77
75428;BMP280;64008;55.612;37.698;2023-07-29T02:50:40;98622.91;;;19.86
75428;BMP280;64008;55.612;37.698;2023-07-29T02:53:06;98620.84;;;19.92
75428;BMP280;64008;55.612;37.698;2023-07-29T02:55:31;98622.84;;;19.48
75428;BMP280;64008;55.612;37.698;2023-07-29T02:57:57;98622.66;;;19.71
75428;BMP280;64008;55.612;37.698;2023-07-29T03:00:22;98611.13;;;19.70
75428;BMP280;64008;55.612;37.698;2023-07-29T03:02:49;98598.16;;;19.81
75428;BMP280;64008;55.612;37.698;2023-07-29T03:05:15;98586.34;;;19.73
75428;BMP280;64008;55.612;37.698;2023-07-29T03:07:41;98588.13;;;19.60
75428;BMP280;64008;55.612;37.698;2023-07-29T03:10:06;98582.13;;;19.63
75428;BMP280;64008;55.612;37.698;2023-07-29T03:12:32;98586.66;;;19.80
75428;BMP280;64008;55.612;37.698;2023-07-29T03:14:57;98591.53;;;19.87
75428;BMP280;64008;55.612;37.698;2023-07-29T03:17:23;98588.56;;;19.71
75428;BMP280;64008;55.612;37.698;2023-07-29T03:19:49;98578.72;;;20.01
75428;BMP280;64008;55.612;37.698;2023-07-29T03:22:15;98572.84;;;19.99
75428;BMP280;64008;55.612;37.698;2023-07-29T03:24:40;98579.81;;;20.00
75428;BMP280;64008;55.612;37.698;2023-07-29T03:27:07;98577.91;;;20.01
75428;BMP280;64008;55.612;37.698;2023-07-29T03:29:35;98575.63;;;20.20
75428;BMP280;64008;55.612;37.698;2023-07-29T03:32:01;98569.50;;;19.73
75428;BMP280;64008;55.612;37.698;2023-07-29T03:34:26;98573.16;;;19.59
75428;BMP280;64008;55.612;37.698;2023-07-29T03:36:52;98562.81;;;19.96
75428;BMP280;64008;55.612;37.698;2023-07-29T03:39:17;98558.84;;;19.94
75428;BMP280;64008;55.612;37.698;2023-07-29T03:41:43;98564.66;;;19.57
75428;BMP280;64008;55.612;37.698;2023-07-29T03:44:08;98559.38;;;19.87
75428;BMP280;64008;55.612;37.698;2023-07-29T03:46:34;98546.50;;;20.10
75428;BMP280;64008;55.612;37.698;2023-07-29T03:48:59;98548.06;;;20.11
75428;BMP280;64008;55.612;37.698;2023-07-29T03:51:25;98537.31;;;19.81
75428;BMP280;64008;55.612;37.698;2023-07-29T03:53:50;98548.47;;;19.92
75428;BMP280;64008;55.612;37.698;2023-07-29T03:56:16;98539.13;;;19.98
75428;BMP280;64008;55.612;37.698;2023-07-29T03:58:43;98538.53;;;19.93
75428;BMP280;64008;55.612;37.698;2023-07-29T04:01:09;98545.84;;;19.83
75428;BMP280;64008;55.612;37.698;2023-07-29T04:03:34;98540.50;;;19.75
75428;BMP280;64008;55.612;37.698;2023-07-29T04:06:00;98545.91;;;19.66
75428;BMP280;64008;55.612;37.698;2023-07-29T04:08:26;98543.63;;;19.77
75428;BMP280;64008;55.612;37.698;2023-07-29T04:10:51;98543.22;;;19.49
75428;BMP280;64008;55.612;37.698;2023-07-29T04:13:17;98527.09;;;19.75
75428;BMP280;64008;55.612;37.698;2023-07-29T04:15:43;98538.63;;;19.75
75428;BMP280;64008;55.612;37.698;2023-07-29T04:18:08;98533.06;;;19.72
75428;BMP280;64008;55.612;37.698;2023-07-29T04:20:34;98532.38;;;19.92
75428;BMP280;64008;55.612;37.698;2023-07-29T04:22:59;98526.63;;;20.02
75428;BMP280;64008;55.612;37.698;2023-07-29T04:25:25;98533.97;;;19.93
75428;BMP280;64008;55.612;37.698;2023-07-29T04:27:50;98539.97;;;20.20
75428;BMP280;64008;55.612;37.698;2023-07-29T04:30:16;98533.84;;;20.19
75428;BMP280;64008;55.612;37.698;2023-07-29T04:32:42;98525.41;;;19.61
75428;BMP280;64008;55.612;37.698;2023-07-29T04:35:08;98530.38;;;19.80
75428;BMP280;64008;55.612;37.698;2023-07-29T04:37:33;98523.34;;;20.05
75428;BMP280;64008;55.612;37.698;2023-07-29T04:39:59;98528.88;;;19.71
75428;BMP280;64008;55.612;37.698;2023-07-29T04:42:25;98533.72;;;19.69
75428;BMP280;64008;55.612;37.698;2023-07-29T04:44:50;98538.75;;;19.79
75428;BMP280;64008;55.612;37.698;2023-07-29T04:47:16;98535.31;;;19.70
75428;BMP280;64008;55.612;37.698;2023-07-29T04:49:41;98525.88;;;20.02
75428;BMP280;64008;55.612;37.698;2023-07-29T04:52:07;98527.72;;;19.72
75428;BMP280;64008;55.612;37.698;2023-07-29T04:54:32;98528.16;;;19.82
75428;BMP280;64008;55.612;37.698;2023-07-29T04:56:58;98519.81;;;19.84
75428;BMP280;64008;55.612;37.698;2023-07-29T04:59:24;98518.38;;;19.48
75428;BMP280;64008;55.612;37.698;2023-07-29T05:01:49;98517.13;;;19.84
75428;BMP280;64008;55.612;37.698;2023-07-29T05:04:15;98518.59;;;19.64
75428;BMP280;64008;55.612;37.698;2023-07-29T05:06:41;98511.50;;;19.68
75428;BMP280;64008;55.612;37.698;2023-07-29T05:09:16;98505.91;;;19.52
75428;BMP280;64008;55.612;37.698;2023-07-29T05:11:43;98513.75;;;19.57
75428;BMP280;64008;55.612;37.698;2023-07-29T05:14:11;98499.88;;;19.55
75428;BMP280;64008;55.612;37.698;2023-07-29T05:16:37;98497.97;;;19.64
75428;BMP280;64008;55.612;37.698;2023-07-29T05:19:02;98497.97;;;19.64
75428;BMP280;64008;55.612;37.698;2023-07-29T05:21:28;98501.41;;;19.74
75428;BMP280;64008;55.612;37.698;2023-07-29T05:23:53;98508.06;;;19.59
75428;BMP280;64008;55.612;37.698;2023-07-29T05:26:18;98513.41;;;19.68
75428;BMP280;64008;55.612;37.698;2023-07-29T05:28:44;98497.63;;;19.75
75428;BMP280;64008;55.612;37.698;2023-07-29T05:31:10;98507.88;;;20.02
75428;BMP280;64008;55.612;37.698;2023-07-29T05:33:35;98504.44;;;20.02
75428;BMP280;64008;55.612;37.698;2023-07-29T05:36:01;98504.22;;;20.07
75428;BMP280;64008;55.612;37.698;2023-07-29T05:38:27;98504.75;;;19.71
75428;BMP280;64008;55.612;37.698;2023-07-29T05:40:53;98509.75;;;20.11
75428;BMP280;64008;55.612;37.698;2023-07-29T05:43:18;98507.75;;;19.99
75428;BMP280;64008;55.612;37.698;2023-07-29T05:45:44;98520.22;;;19.56
75428;BMP280;64008;55.612;37.698;2023-07-29T05:48:09;98520.97;;;19.74
75428;BMP280;64008;55.612;37.698;2023-07-29T05:50:35;98523.81;;;19.99
75428;BMP280;64008;55.612;37.698;2023-07-29T05:53:00;98513.69;;;19.83
75428;BMP280;64008;55.612;37.698;2023-07-29T05:55:26;98521.63;;;20.01
75428;BMP280;64008;55.612;37.698;2023-07-29T05:57:51;98528.44;;;19.90
75428;BMP280;64008;55.612;37.698;2023-07-29T06:00:17;98531.69;;;19.65
75428;BMP280;64008;55.612;37.698;2023-07-29T06:02:42;98535.50;;;20.03
75428;BMP280;64008;55.612;37.698;2023-07-29T06:05:08;98533.78;;;20.28
75428;BMP280;64008;55.612;37.698;2023-07-29T06:07:33;98537.22;;;20.07
75428;BMP280;64008;55.612;37.698;2023-07-29T06:09:59;98547.19;;;19.90
75428;BMP280;64008;55.612;37.698;2023-07-29T06:12:25;98544.19;;;20.00
75428;BMP280;64008;55.612;37.698;2023-07-29T06:14:51;98548.09;;;20.02
75428;BMP280;64008;55.612;37.698;2023-07-29T06:17:17;98554.31;;;19.85
75428;BMP280;64008;55.612;37.698;2023-07-29T06:19:42;98561.69;;;20.06
75428;BMP280;64008;55.612;37.698;2023-07-29T06:22:09;98569.16;;;19.83
75428;BMP280;64008;55.612;37.698;2023-07-29T06:24:35;98578.84;;;19.58
75428;BMP280;64008;55.612;37.698;2023-07-29T06:27:00;98571.50;;;19.84
75428;BMP280;64008;55.612;37.698;2023-07-29T06:29:26;98567.00;;;20.15
75428;BMP280;64008;55.612;37.698;2023-07-29T06:31:51;98567.50;;;19.99
75428;BMP280;64008;55.612;37.698;2023-07-29T06:34:17;98571.66;;;19.88
75428;BMP280;64008;55.612;37.698;2023-07-29T06:36:44;98566.72;;;19.99
75428;BMP280;64008;55.612;37.698;2023-07-29T06:39:09;98568.81;;;19.93
75428;BMP280;64008;55.612;37.698;2023-07-29T06:41:35;98574.63;;;19.48
75428;BMP280;64008;55.612;37.698;2023-07-29T06:44:00;98573.50;;;19.40
75428;BMP280;64008;55.612;37.698;2023-07-29T06:46:26;98570.19;;;19.52
75428;BMP280;64008;55.612;37.698;2023-07-29T06:48:52;98569.63;;;19.76
75428;BMP280;64008;55.612;37.698;2023-07-29T06:51:18;98583.19;;;19.80
75428;BMP280;64008;55.612;37.698;2023-07-29T06:53:44;98571.88;;;19.74
75428;BMP280;64008;55.612;37.698;2023-07-29T06:56:09;98579.41;;;19.81
75428;BMP280;64008;55.612;37.698;2023-07-29T06:58:35;98577.59;;;19.47
75428;BMP280;64008;55.612;37.698;2023-07-29T07:01:00;98585.44;;;19.60
75428;BMP280;64008;55.612;37.698;2023-07-29T07:03:26;98581.63;;;19.70
75428;BMP280;64008;55.612;37.698;2023-07-29T07:05:51;98586.69;;;19.63
75428;BMP280;64008;55.612;37.698;2023-07-29T07:08:17;98585.88;;;19.80
75428;BMP280;64008;55.612;37.698;2023-07-29T07:10:42;98581.50;;;19.58
75428;BMP280;64008;55.612;37.698;2023-07-29T07:13:08;98577.22;;;19.74
75428;BMP280;64008;55.612;37.698;2023-07-29T07:15:33;98589.06;;;19.64
75428;BMP280;64008;55.612;37.698;2023-07-29T07:17:59;98580.09;;;19.60
75428;BMP280;64008;55.612;37.698;2023-07-29T07:20:24;98575.03;;;19.68
75428;BMP280;64008;55.612;37.698;2023-07-29T07:22:50;98575.22;;;19.45
75428;BMP280;64008;55.612;37.698;2023-07-29T07:25:15;98580.91;;;19.52
75428;BMP280;64008;55.612;37.698;2023-07-29T07:27:41;98578.84;;;19.49
75428;BMP280;64008;55.612;37.698;2023-07-29T07:30:07;98588.00;;;19.57
75428;BMP280;64008;55.612;37.698;2023-07-29T07:32:32;98584.31;;;19.70
75428;BMP280;64008;55.612;37.698;2023-07-29T07:34:58;98579.28;;;19.69
75428;BMP280;64008;55.612;37.698;2023-07-29T07:37:23;98591.91;;;19.59
75428;BMP280;64008;55.612;37.698;2023-07-29T07:39:49;98586.41;;;19.56
75428;BMP280;64008;55.612;37.698;2023-07-29T07:42:15;98591.75;;;19.64
75428;BMP280;64008;55.612;37.698;2023-07-29T07:44:40;98589.72;;;19.53
75428;BMP280;64008;55.612;37.698;2023-07-29T07:47:06;98593.16;;;19.71
75428;BMP280;64008;55.612;37.698;2023-07-29T07:49:31;98589.53;;;19.75
75428;BMP280;64008;55.612;37.698;2023-07-29T07:51:57;98585.41;;;19.78
75428;BMP280;64008;55.612;37.698;2023-07-29T07:54:22;98581.72;;;19.91
75428;BMP280;64008;55.612;37.698;2023-07-29T07:56:48;98592.19;;;19.84
75428;BMP280;64008;55.612;37.698;2023-07-29T07:59:13;98596.44;;;19.85
75428;BMP280;64008;55.612;37.698;2023-07-29T08:01:39;98596.28;;;19.73
75428;BMP280;64008;55.612;37.698;2023-07-29T08:04:05;98591.50;;;19.96
75428;BMP280;64008;55.612;37.698;2023-07-29T08:06:31;98594.44;;;19.64
75428;BMP280;64008;55.612;37.698;2023-07-29T08:08:57;98593.75;;;19.76
75428;BMP280;64008;55.612;37.698;2023-07-29T08:11:23;98591.41;;;19.75
75428;BMP280;64008;55.612;37.698;2023-07-29T08:13:48;98591.41;;;19.75
75428;BMP280;64008;55.612;37.698;2023-07-29T08:16:14;98595.03;;;19.79
75428;BMP280;64008;55.612;37.698;2023-07-29T08:18:40;98594.22;;;19.78
75428;BMP280;64008;55.612;37.698;2023-07-29T08:21:05;98604.63;;;19.89
75428;BMP280;64008;55.612;37.698;2023-07-29T08:23:33;98599.03;;;20.02
75428;BMP280;64008;55.612;37.698;2023-07-29T08:26:00;98603.28;;;20.03
75428;BMP280;64008;55.612;37.698;2023-07-29T08:28:32;98605.41;;;19.72
75428;BMP280;64008;55.612;37.698;2023-07-29T08:30:58;98600.25;;;19.75
75428;BMP280;64008;55.612;37.698;2023-07-29T08:33:23;98596.47;;;19.68
75428;BMP280;64008;55.612;37.698;2023-07-29T08:35:49;98603.34;;;19.95
75428;BMP280;64008;55.612;37.698;2023-07-29T08:38:14;98608.63;;;19.56
75428;BMP280;64008;55.612;37.698;2023-07-29T08:40:54;98603.13;;;19.61
75428;BMP280;64008;55.612;37.698;2023-07-29T08:43:25;98617.38;;;19.83
75428;BMP280;64008;55.612;37.698;2023-07-29T08:45:54;98614.56;;;19.79
75428;BMP280;64008;55.612;37.698;2023-07-29T08:48:24;98621.50;;;19.72
75428;BMP280;64008;55.612;37.698;2023-07-29T08:50:52;98616.47;;;19.70
75428;BMP280;64008;55.612;37.698;2023-07-29T08:53:19;98613.19;;;19.56
75428;BMP280;64008;55.612;37.698;2023-07-29T08:55:45;98611.56;;;19.81
75428;BMP280;64008;55.612;37.698;2023-07-29T08:58:10;98605.88;;;19.82
75428;BMP280;64008;55.612;37.698;2023-07-29T09:00:37;98613.66;;;19.75
75428;BMP280;64008;55.612;37.698;2023-07-29T09:03:02;98608.75;;;19.69
75428;BMP280;64008;55.612;37.698;2023-07-29T09:05:33;98599.22;;;19.97
75428;BMP280;64008;55.612;37.698;2023-07-29T09:08:00;98613.78;;;19.70
75428;BMP280;64008;55.612;37.698;2023-07-29T09:10:27;98606.75;;;20.13
75428;BMP280;64008;55.612;37.698;2023-07-29T09:12:53;98613.78;;;19.79
75428;BMP280;64008;55.612;37.698;2023-07-29T09:15:28;98601.59;;;19.90
75428;BMP280;64008;55.612;37.698;2023-07-29T09:17:56;98609.59;;;20.07
75428;BMP280;64008;55.612;37.698;2023-07-29T09:20:27;98605.63;;;20.14
75428;BMP280;64008;55.612;37.698;2023-07-29T09:22:58;98616.75;;;19.86
75428;BMP280;64008;55.612;37.698;2023-07-29T09:25:26;98613.78;;;19.70
75428;BMP280;64008;55.612;37.698;2023-07-29T09:27:52;98615.66;;;19.87
75428;BMP280;64008;55.612;37.698;2023-07-29T09:30:17;98612.19;;;19.86
75428;BMP280;64008;55.612;37.698;2023-07-29T09:32:43;98613.41;;;19.98
75428;BMP280;64008;55.612;37.698;2023-07-29T09:35:12;98615.84;;;19.82
75428;BMP280;64008;55.612;37.698;2023-07-29T09:37:38;98607.16;;;19.76
75428;BMP280;64008;55.612;37.698;2023-07-29T09:40:06;98608.72;;;20.24
75428;BMP280;64008;55.612;37.698;2023-07-29T09:42:32;98616.38;;;20.05
75428;BMP280;64008;55.612;37.698;2023-07-29T09:44:57;98609.19;;;20.26
75428;BMP280;64008;55.612;37.698;2023-07-29T09:47:25;98615.47;;;19.92
75428;BMP280;64008;55.612;37.698;2023-07-29T09:49:51;98622.41;;;20.02
75428;BMP280;64008;55.612;37.698;2023-07-29T09:52:22;98614.47;;;20.14
75428;BMP280;64008;55.612;37.698;2023-07-29T09:54:48;98616.34;;;19.75
75428;BMP280;64008;55.612;37.698;2023-07-29T09:57:16;98618.34;;;19.87
75428;BMP280;64008;55.612;37.698;2023-07-29T09:59:42;98633.56;;;20.04
75428;BMP280;64008;55.612;37.698;2023-07-29T10:02:16;98619.72;;;20.02
75428;BMP280;64008;55.612;37.698;2023-07-29T10:04:42;98623.22;;;19.76
75428;BMP280;64008;55.612;37.698;2023-07-29T10:07:09;98620.72;;;20.27
75428;BMP280;64008;55.612;37.698;2023-07-29T10:09:36;98622.50;;;20.14
75428;BMP280;64008;55.612;37.698;2023-07-29T10:12:05;98628.44;;;20.28
75428;BMP280;64008;55.612;37.698;2023-07-29T10:14:31;98628.72;;;20.36
75428;BMP280;64008;55.612;37.698;2023-07-29T10:16:57;98620.06;;;20.30
75428;BMP280;64008;55.612;37.698;2023-07-29T10:19:24;98620.22;;;20.25
75428;BMP280;64008;55.612;37.698;2023-07-29T10:21:51;98623.25;;;20.23
75428;BMP280;64008;55.612;37.698;2023-07-29T10:24:19;98629.44;;;20.06
75428;BMP280;64008;55.612;37.698;2023-07-29T10:26:49;98630.13;;;19.95
75428;BMP280;64008;55.612;37.698;2023-07-29T10:29:19;98642.03;;;19.50
75428;BMP280;64008;55.612;37.698;2023-07-29T10:31:45;98635.41;;;19.74
75428;BMP280;64008;55.612;37.698;2023-07-29T10:34:12;98630.69;;;19.71
75428;BMP280;64008;55.612;37.698;2023-07-29T10:36:39;98625.28;;;20.26
75428;BMP280;64008;55.612;37.698;2023-07-29T10:39:07;98624.69;;;20.21
75428;BMP280;64008;55.612;37.698;2023-07-29T10:41:58;98627.47;;;19.86
75428;BMP280;64008;55.612;37.698;2023-07-29T10:47:24;98624.50;;;20.26
75428;BMP280;64008;55.612;37.698;2023-07-29T10:49:55;98627.56;;;20.07
75428;BMP280;64008;55.612;37.698;2023-07-29T10:52:37;98609.09;;;20.14
75428;BMP280;64008;55.612;37.698;2023-07-29T10:55:26;98615.25;;;20.44
75428;BMP280;64008;55.612;37.698;2023-07-29T10:57:52;98629.59;;;20.19
75428;BMP280;64008;55.612;37.698;2023-07-29T11:00:19;98628.69;;;20.06
75428;BMP280;64008;55.612;37.698;2023-07-29T11:02:58;98623.00;;;20.37
75428;BMP280;64008;55.612;37.698;2023-07-29T11:05:26;98628.06;;;20.09
75428;BMP280;64008;55.612;37.698;2023-07-29T11:07:51;98625.69;;;20.37
75428;BMP280;64008;55.612;37.698;2023-07-29T11:10:17;98627.19;;;20.56
75428;BMP280;64008;55.612;37.698;2023-07-29T11:12:50;98626.38;;;20.64
75428;BMP280;64008;55.612;37.698;2023-07-29T11:15:29;98622.66;;;20.47
75428;BMP280;64008;55.612;37.698;2023-07-29T11:18:01;98629.72;;;20.22
75428;BMP280;64008;55.612;37.698;2023-07-29T11:20:33;98624.28;;;20.40
75428;BMP280;64008;55.612;37.698;2023-07-29T11:23:01;98635.16;;;20.05
75428;BMP280;64008;55.612;37.698;2023-07-29T11:25:28;98635.63;;;20.45
75428;BMP280;64008;55.612;37.698;2023-07-29T11:27:58;98634.97;;;20.48
75428;BMP280;64008;55.612;37.698;2023-07-29T11:30:25;98635.69;;;20.28
75428;BMP280;64008;55.612;37.698;2023-07-29T11:32:55;98636.97;;;20.22
75428;BMP280;64008;55.612;37.698;2023-07-29T11:35:21;98649.59;;;20.21
75428;BMP280;64008;55.612;37.698;2023-07-29T11:37:48;98655.78;;;20.13
75428;BMP280;64008;55.612;37.698;2023-07-29T11:40:19;98666.84;;;20.80
75428;BMP280;64008;55.612;37.698;2023-07-29T11:42:45;98663.13;;;21.14
75428;BMP280;64008;55.612;37.698;2023-07-29T11:45:12;98669.38;;;20.46
75428;BMP280;64008;55.612;37.698;2023-07-29T11:47:38;98669.13;;;20.30
75428;BMP280;64008;55.612;37.698;2023-07-29T11:50:08;98663.78;;;20.22
75428;BMP280;64008;55.612;37.698;2023-07-29T11:52:40;98671.13;;;19.95
75428;BMP280;64008;55.612;37.698;2023-07-29T11:55:06;98657.53;;;20.09
75428;BMP280;64008;55.612;37.698;2023-07-29T11:57:37;98664.34;;;19.98
75428;BMP280;64008;55.612;37.698;2023-07-29T12:00:04;98670.31;;;20.03
75428;BMP280;64008;55.612;37.698;2023-07-29T12:02:32;98672.59;;;20.40
75428;BMP280;64008;55.612;37.698;2023-07-29T12:04:58;98678.66;;;20.11
75428;BMP280;64008;55.612;37.698;2023-07-29T12:07:24;98658.50;;;20.72
75428;BMP280;64008;55.612;37.698;2023-07-29T12:09:50;98669.41;;;20.38
75428;BMP280;64008;55.612;37.698;2023-07-29T12:12:17;98673.13;;;20.16
75428;BMP280;64008;55.612;37.698;2023-07-29T12:14:46;98678.13;;;20.26
75428;BMP280;64008;55.612;37.698;2023-07-29T12:17:12;98670.91;;;20.56
75428;BMP280;64008;55.612;37.698;2023-07-29T12:19:39;98664.03;;;20.38
75428;BMP280;64008;55.612;37.698;2023-07-29T12:22:08;98658.53;;;20.43
75428;BMP280;64008;55.612;37.698;2023-07-29T12:24:36;98666.50;;;20.51
75428;BMP280;64008;55.612;37.698;2023-07-29T12:27:01;98664.94;;;20.80
75428;BMP280;64008;55.612;37.698;2023-07-29T12:29:27;98667.59;;;20.50
75428;BMP280;64008;55.612;37.698;2023-07-29T12:32:03;98657.88;;;20.67
75428;BMP280;64008;55.612;37.698;2023-07-29T12:34:30;98649.56;;;20.60
75428;BMP280;64008;55.612;37.698;2023-07-29T12:36:58;98651.56;;;20.42
75428;BMP280;64008;55.612;37.698;2023-07-29T12:39:29;98636.06;;;20.98
75428;BMP280;64008;55.612;37.698;2023-07-29T12:41:56;98640.88;;;21.47
75428;BMP280;64008;55.612;37.698;2023-07-29T12:44:23;98642.97;;;21.62
75428;BMP280;64008;55.612;37.698;2023-07-29T12:46:49;98648.25;;;21.71
75428;BMP280;64008;55.612;37.698;2023-07-29T12:49:14;98648.81;;;21.76
75428;BMP280;64008;55.612;37.698;2023-07-29T12:51:40;98648.81;;;21.76
75428;BMP280;64008;55.612;37.698;2023-07-29T12:54:06;98645.47;;;21.79
75428;BMP280;64008;55.612;37.698;2023-07-29T12:56:32;98657.09;;;21.83
75428;BMP280;64008;55.612;37.698;2023-07-29T12:58:59;98657.09;;;21.83
75428;BMP280;64008;55.612;37.698;2023-07-29T13:01:25;98650.06;;;21.79
75428;BMP280;64008;55.612;37.698;2023-07-29T13:03:51;98658.13;;;21.79
75428;BMP280;64008;55.612;37.698;2023-07-29T13:06:17;98668.41;;;21.77
75428;BMP280;64008;55.612;37.698;2023-07-29T13:08:43;98661.25;;;21.81
75428;BMP280;64008;55.612;37.698;2023-07-29T13:11:09;98660.16;;;21.82
75428;BMP280;64008;55.612;37.698;2023-07-29T13:13:35;98654.75;;;21.82
75428;BMP280;64008;55.612;37.698;2023-07-29T13:16:00;98652.84;;;21.82
75428;BMP280;64008;55.612;37.698;2023-07-29T13:18:26;98655.53;;;21.82
75428;BMP280;64008;55.612;37.698;2023-07-29T13:20:52;98650.94;;;21.83
75428;BMP280;64008;55.612;37.698;2023-07-29T13:23:18;98643.66;;;21.83
75428;BMP280;64008;55.612;37.698;2023-07-29T13:25:43;98643.66;;;21.83
75428;BMP280;64008;55.612;37.698;2023-07-29T13:28:10;98638.19;;;21.80
75428;BMP280;64008;55.612;37.698;2023-07-29T13:30:35;98640.88;;;21.80
75428;BMP280;64008;55.612;37.698;2023-07-29T13:33:01;98640.88;;;21.80
75428;BMP280;64008;55.612;37.698;2023-07-29T13:35:27;98644.00;;;21.82
75428;BMP280;64008;55.612;37.698;2023-07-29T13:37:53;98645.25;;;21.84
75428;BMP280;64008;55.612;37.698;2023-07-29T13:40:18;98638.41;;;21.87
75428;BMP280;64008;55.612;37.698;2023-07-29T13:42:44;98638.41;;;21.87
75428;BMP280;64008;55.612;37.698;2023-07-29T13:45:09;98624.53;;;21.85
75428;BMP280;64008;55.612;37.698;2023-07-29T13:47:35;98625.53;;;21.93
75428;BMP280;64008;55.612;37.698;2023-07-29T13:50:00;98632.03;;;21.92
75428;BMP280;64008;55.612;37.698;2023-07-29T13:52:26;98630.81;;;21.89
75428;BMP280;64008;55.612;37.698;2023-07-29T13:54:51;98619.75;;;21.91
75428;BMP280;64008;55.612;37.698;2023-07-29T13:57:17;98619.34;;;21.92
75428;BMP280;64008;55.612;37.698;2023-07-29T13:59:43;98618.56;;;21.92
75428;BMP280;64008;55.612;37.698;2023-07-29T14:02:08;98618.56;;;21.92